createdAt,value
2023-05-01T00:00:29.751Z,69.26
2023-05-01T00:01:29.761Z,69.19
2023-05-01T00:02:29.896Z,69.15
2023-05-01T00:03:29.924Z,69.15
2023-05-01T00:04:29.830Z,69.26
2023-05-01T00:05:29.818Z,69.18
2023-05-01T00:06:29.853Z,69.21
2023-05-01T00:07:29.866Z,69.45
2023-05-01T00:08:29.940Z,69.47
2023-05-01T00:09:30.039Z,69.47
2023-05-01T00:10:30.132Z,69.41
2023-05-01T00:11:30.419Z,69.38
2023-05-01T00:12:30.194Z,69.43
2023-05-01T00:13:30.276Z,69.38
2023-05-01T00:14:30.298Z,69.42
2023-05-01T00:15:30.378Z,69.27
2023-05-01T00:16:30.480Z,69.20
2023-05-01T00:17:30.499Z,69.19
2023-05-01T00:18:30.543Z,69.30
2023-05-01T00:19:30.612Z,69.26
2023-05-01T00:20:30.700Z,69.36
2023-05-01T00:21:30.749Z,69.49
2023-05-01T00:22:30.819Z,69.43
2023-05-01T00:23:30.922Z,69.49
2023-05-01T00:24:30.970Z,69.60
2023-05-01T00:25:31.024Z,69.48
2023-05-01T00:26:31.146Z,69.41
2023-05-01T00:27:31.130Z,69.33
2023-05-01T00:28:31.175Z,69.20
2023-05-01T00:29:31.213Z,69.14
2023-05-01T00:30:31.206Z,69.08
2023-05-01T00:31:31.279Z,68.89
2023-05-01T00:32:31.274Z,68.86
2023-05-01T00:33:31.275Z,69.34
2023-05-01T00:34:31.266Z,69.24
2023-05-01T00:35:31.334Z,69.03
2023-05-01T00:36:31.276Z,69.06
2023-05-01T00:37:31.303Z,68.63
2023-05-01T00:38:31.321Z,68.13
2023-05-01T00:39:31.308Z,68.03
2023-05-01T00:40:31.319Z,68.06
2023-05-01T00:41:31.334Z,67.98
2023-05-01T00:42:31.372Z,67.90
2023-05-01T00:43:31.365Z,67.91
2023-05-01T00:44:31.398Z,67.96
2023-05-01T00:45:31.447Z,67.87
2023-05-01T00:46:31.544Z,67.95
2023-05-01T00:47:31.501Z,68.04
2023-05-01T00:48:31.457Z,68.31
2023-05-01T00:49:31.485Z,68.59
2023-05-01T00:50:31.510Z,68.45
2023-05-01T00:51:31.497Z,68.34
2023-05-01T00:52:31.506Z,68.38
2023-05-01T00:53:31.529Z,68.32
2023-05-01T00:54:31.575Z,68.20
2023-05-01T00:55:31.621Z,68.04
2023-05-01T00:56:31.642Z,68.03
2023-05-01T00:57:31.699Z,68.17
2023-05-01T00:58:31.735Z,68.19
2023-05-01T00:59:31.720Z,68.30
2023-05-01T01:00:31.776Z,68.24
2023-05-01T01:01:31.764Z,68.09
2023-05-01T01:02:31.742Z,68.06
2023-05-01T01:03:31.747Z,67.76
2023-05-01T01:04:31.860Z,67.82
2023-05-01T01:05:31.761Z,68.01
2023-05-01T01:06:31.791Z,68.05
2023-05-01T01:07:31.768Z,68.09
2023-05-01T01:08:32.762Z,68.00
2023-05-01T01:09:31.811Z,67.78
2023-05-01T01:10:31.788Z,67.98
2023-05-01T01:11:31.802Z,67.88
2023-05-01T01:12:31.826Z,67.93
2023-05-01T01:13:31.854Z,68.18
2023-05-01T01:14:31.903Z,68.09
2023-05-01T01:15:31.914Z,67.96
2023-05-01T01:16:32.010Z,68.07
2023-05-01T01:17:32.094Z,68.09
2023-05-01T01:18:31.971Z,68.29
2023-05-01T01:19:32.081Z,68.40
2023-05-01T01:20:32.059Z,68.49
2023-05-01T01:21:32.117Z,68.47
2023-05-01T01:22:32.150Z,68.50
2023-05-01T01:23:32.186Z,68.59
2023-05-01T01:24:32.232Z,68.72
2023-05-01T01:25:32.220Z,69.04
2023-05-01T01:26:32.235Z,69.09
2023-05-01T01:27:32.936Z,69.13
2023-05-01T01:28:32.265Z,69.08
2023-05-01T01:29:32.353Z,68.98
2023-05-01T01:30:32.534Z,69.32
2023-05-01T01:31:32.365Z,69.40
2023-05-01T01:32:32.437Z,69.43
2023-05-01T01:33:32.383Z,69.68
2023-05-01T01:34:32.421Z,69.77
2023-05-01T01:35:32.421Z,69.42
2023-05-01T01:36:32.413Z,69.25
2023-05-01T01:37:32.439Z,69.18
2023-05-01T01:38:32.469Z,69.24
2023-05-01T01:39:32.496Z,69.29
2023-05-01T01:40:32.522Z,69.31
2023-05-01T01:41:32.532Z,69.26
2023-05-01T01:42:32.549Z,69.25
2023-05-01T01:43:32.555Z,69.29
2023-05-01T01:44:32.542Z,69.63
2023-05-01T01:45:32.562Z,69.72
2023-05-01T01:46:32.684Z,69.63
2023-05-01T01:47:32.711Z,69.70
2023-05-01T01:48:32.637Z,69.73
2023-05-01T01:49:32.660Z,69.65
2023-05-01T01:50:32.715Z,69.59
2023-05-01T01:51:32.689Z,69.57
2023-05-01T01:52:32.707Z,69.36
2023-05-01T01:53:32.730Z,69.27
2023-05-01T01:54:32.770Z,69.14
2023-05-01T01:55:32.805Z,69.18
2023-05-01T01:56:32.789Z,69.22
2023-05-01T01:57:32.807Z,69.10
2023-05-01T01:58:32.820Z,69.13
2023-05-01T01:59:32.845Z,69.11
2023-05-01T02:00:32.891Z,69.16
2023-05-01T02:01:32.926Z,69.20
2023-05-01T02:02:32.969Z,69.26
2023-05-01T02:03:32.970Z,69.16
2023-05-01T02:04:32.923Z,69.17
2023-05-01T02:05:33.003Z,69.02
2023-05-01T02:06:33.021Z,69.12
2023-05-01T02:07:32.963Z,69.01
2023-05-01T02:08:32.992Z,68.90
2023-05-01T02:09:33.004Z,68.77
2023-05-01T02:10:33.026Z,68.67
2023-05-01T02:11:33.046Z,68.75
2023-05-01T02:12:33.065Z,68.71
2023-05-01T02:13:33.121Z,68.67
2023-05-01T02:14:33.115Z,68.71
2023-05-01T02:15:33.139Z,68.51
2023-05-01T02:16:33.171Z,68.61
2023-05-01T02:17:33.231Z,68.74
2023-05-01T02:18:33.220Z,68.51
2023-05-01T02:19:33.222Z,68.57
2023-05-01T02:20:33.264Z,68.61
2023-05-01T02:21:33.281Z,68.65
2023-05-01T02:22:33.305Z,68.75
2023-05-01T02:23:33.328Z,68.85
2023-05-01T02:24:33.354Z,68.60
2023-05-01T02:25:33.388Z,68.39
2023-05-01T02:26:33.419Z,68.19
2023-05-01T02:27:33.446Z,68.42
2023-05-01T02:28:33.483Z,68.46
2023-05-01T02:29:33.493Z,68.50
2023-05-01T02:30:33.538Z,68.39
2023-05-01T02:31:33.593Z,68.50
2023-05-01T02:32:33.592Z,68.78
2023-05-01T02:33:33.593Z,68.66
2023-05-01T02:34:33.653Z,68.61
2023-05-01T02:35:33.668Z,68.83
2023-05-01T02:36:33.704Z,69.14
2023-05-01T02:37:33.723Z,69.24
2023-05-01T02:38:33.755Z,68.93
2023-05-01T02:39:33.788Z,68.80
2023-05-01T02:40:33.826Z,68.94
2023-05-01T02:41:33.868Z,69.26
2023-05-01T02:42:33.873Z,69.65
2023-05-01T02:43:33.899Z,69.82
2023-05-01T02:44:33.916Z,69.57
2023-05-01T02:45:33.979Z,69.52
2023-05-01T02:46:34.081Z,69.47
2023-05-01T02:47:34.072Z,69.46
2023-05-01T02:48:34.012Z,69.39
2023-05-01T02:49:34.033Z,69.30
2023-05-01T02:50:34.072Z,69.17
2023-05-01T02:51:34.076Z,69.20
2023-05-01T02:52:34.089Z,69.13
2023-05-01T02:53:34.125Z,69.11
2023-05-01T02:54:34.143Z,69.16
2023-05-01T02:55:34.165Z,69.12
2023-05-01T02:56:34.176Z,69.43
2023-05-01T02:57:34.202Z,69.27
2023-05-01T02:58:34.229Z,69.18
2023-05-01T02:59:34.252Z,69.20
2023-05-01T03:00:34.280Z,69.06
2023-05-01T03:01:34.339Z,69.12
2023-05-01T03:02:34.388Z,69.04
2023-05-01T03:03:34.383Z,68.95
2023-05-01T03:04:34.433Z,69.01
2023-05-01T03:05:34.453Z,68.83
2023-05-01T03:06:34.513Z,68.99
2023-05-01T03:07:34.453Z,68.87
2023-05-01T03:08:34.471Z,68.75
2023-05-01T03:09:34.495Z,68.77
2023-05-01T03:10:34.516Z,68.84
2023-05-01T03:11:34.561Z,69.09
2023-05-01T03:12:34.589Z,69.17
2023-05-01T03:13:34.657Z,69.25
2023-05-01T03:14:34.628Z,69.31
2023-05-01T03:15:34.647Z,69.27
2023-05-01T03:16:34.708Z,69.16
2023-05-01T03:17:34.727Z,69.12
2023-05-01T03:18:34.738Z,69.16
2023-05-01T03:19:34.711Z,69.24
2023-05-01T03:20:34.769Z,69.22
2023-05-01T03:21:34.775Z,69.21
2023-05-01T03:22:34.820Z,69.33
2023-05-01T03:23:34.793Z,69.37
2023-05-01T03:24:34.818Z,69.36
2023-05-01T03:25:34.818Z,69.31
2023-05-01T03:26:34.856Z,69.27
2023-05-01T03:27:34.877Z,69.34
2023-05-01T03:28:34.889Z,69.30
2023-05-01T03:29:34.897Z,69.41
2023-05-01T03:30:34.924Z,69.32
2023-05-01T03:31:34.970Z,69.30
2023-05-01T03:32:34.978Z,69.37
2023-05-01T03:33:34.949Z,69.30
2023-05-01T03:34:34.980Z,69.23
2023-05-01T03:35:35.056Z,69.18
2023-05-01T03:36:35.047Z,69.07
2023-05-01T03:37:35.024Z,69.00
2023-05-01T03:38:35.058Z,69.26
2023-05-01T03:39:35.071Z,69.33
2023-05-01T03:40:35.079Z,69.26
2023-05-01T03:41:35.098Z,69.28
2023-05-01T03:42:35.097Z,69.25
2023-05-01T03:43:35.115Z,69.17
2023-05-01T03:44:35.161Z,69.15
2023-05-01T03:45:35.199Z,69.15
2023-05-01T03:46:35.241Z,69.34
2023-05-01T03:47:35.297Z,69.63
2023-05-01T03:48:35.281Z,69.58
2023-05-01T03:49:35.305Z,69.60
2023-05-01T03:50:35.328Z,69.58
2023-05-01T03:51:35.361Z,69.57
2023-05-01T03:52:35.350Z,69.49
2023-05-01T03:53:35.369Z,69.46
2023-05-01T03:54:35.403Z,69.83
2023-05-01T03:55:35.376Z,69.90
2023-05-01T03:56:35.427Z,69.84
2023-05-01T03:57:35.401Z,69.70
2023-05-01T03:58:35.399Z,69.67
2023-05-01T03:59:35.435Z,69.61
2023-05-01T04:00:35.456Z,69.56
2023-05-01T04:01:35.493Z,69.55
2023-05-01T04:02:35.603Z,69.61
2023-05-01T04:03:35.613Z,69.55
2023-05-01T04:04:35.715Z,69.52
2023-05-01T04:05:35.646Z,69.49
2023-05-01T04:06:35.692Z,69.50
2023-05-01T04:07:35.688Z,69.62
2023-05-01T04:08:35.697Z,69.72
2023-05-01T04:09:35.706Z,69.82
2023-05-01T04:10:35.758Z,69.82
2023-05-01T04:11:35.765Z,69.83
2023-05-01T04:12:35.777Z,69.80
2023-05-01T04:13:35.825Z,69.88
2023-05-01T04:14:35.855Z,69.97
2023-05-01T04:15:35.893Z,70.02
2023-05-01T04:16:36.027Z,70.05
2023-05-01T04:17:36.124Z,70.06
2023-05-01T04:18:36.097Z,70.07
2023-05-01T04:19:36.128Z,70.05
2023-05-01T04:20:36.172Z,70.00
2023-05-01T04:21:36.235Z,70.01
2023-05-01T04:22:36.238Z,69.97
2023-05-01T04:23:36.261Z,69.90
2023-05-01T04:24:36.280Z,69.98
2023-05-01T04:25:36.324Z,69.99
2023-05-01T04:26:36.355Z,69.99
2023-05-01T04:27:36.322Z,69.89
2023-05-01T04:28:36.332Z,69.89
2023-05-01T04:29:36.336Z,69.79
2023-05-01T04:30:36.341Z,69.77
2023-05-01T04:31:36.507Z,69.68
2023-05-01T04:32:36.409Z,69.63
2023-05-01T04:33:36.391Z,69.71
2023-05-01T04:34:36.396Z,69.88
2023-05-01T04:35:36.418Z,70.04
2023-05-01T04:36:36.486Z,70.12
2023-05-01T04:37:36.484Z,70.10
2023-05-01T04:38:36.520Z,70.06
2023-05-01T04:39:36.547Z,70.02
2023-05-01T04:40:36.595Z,69.97
2023-05-01T04:41:36.664Z,70.05
2023-05-01T04:42:36.682Z,70.17
2023-05-01T04:43:36.699Z,70.25
2023-05-01T04:44:36.756Z,70.66
2023-05-01T04:45:36.832Z,70.81
2023-05-01T04:46:36.996Z,70.84
2023-05-01T04:47:37.019Z,70.92
2023-05-01T04:48:37.101Z,70.90
2023-05-01T04:49:37.121Z,70.88
2023-05-01T04:50:37.166Z,70.86
2023-05-01T04:51:37.270Z,70.81
2023-05-01T04:52:37.253Z,70.74
2023-05-01T04:53:37.279Z,70.67
2023-05-01T04:54:37.310Z,70.81
2023-05-01T04:55:37.343Z,70.68
2023-05-01T04:56:37.400Z,70.72
2023-05-01T04:57:37.390Z,70.63
2023-05-01T04:58:37.437Z,70.36
2023-05-01T04:59:37.432Z,70.32
2023-05-01T05:00:37.460Z,70.51
2023-05-01T05:01:37.604Z,70.42
2023-05-01T05:02:37.641Z,70.41
2023-05-01T05:03:37.771Z,70.21
2023-05-01T05:04:37.578Z,69.92
2023-05-01T05:05:37.642Z,70.13
2023-05-01T05:06:37.694Z,70.20
2023-05-01T05:07:37.651Z,70.14
2023-05-01T05:08:37.673Z,70.05
2023-05-01T05:09:37.667Z,69.94
2023-05-01T05:10:37.675Z,69.63
2023-05-01T05:11:37.724Z,69.49
2023-05-01T05:12:37.729Z,69.39
2023-05-01T05:13:37.729Z,69.12
2023-05-01T05:14:37.789Z,68.81
2023-05-01T05:15:37.763Z,68.66
2023-05-01T05:16:38.233Z,68.47
2023-05-01T05:17:37.879Z,68.35
2023-05-01T05:18:37.849Z,68.13
2023-05-01T05:19:37.898Z,67.96
2023-05-01T05:20:37.924Z,67.87
2023-05-01T05:21:38.024Z,67.80
2023-05-01T05:22:38.026Z,67.82
2023-05-01T05:23:38.073Z,67.72
2023-05-01T05:24:38.116Z,68.00
2023-05-01T05:25:38.174Z,68.15
2023-05-01T05:26:38.168Z,68.49
2023-05-01T05:27:38.185Z,68.67
2023-05-01T05:28:38.139Z,68.66
2023-05-01T05:29:38.163Z,68.74
2023-05-01T05:30:38.244Z,68.52
2023-05-01T05:31:38.369Z,68.36
2023-05-01T05:32:38.362Z,68.30
2023-05-01T05:33:38.349Z,68.20
2023-05-01T05:34:38.408Z,68.16
2023-05-01T05:35:38.454Z,68.10
2023-05-01T05:36:38.562Z,68.04
2023-05-01T05:37:38.563Z,67.95
2023-05-01T05:38:38.616Z,67.99
2023-05-01T05:39:38.672Z,67.80
2023-05-01T05:40:38.708Z,67.68
2023-05-01T05:41:38.772Z,67.63
2023-05-01T05:42:38.793Z,67.68
2023-05-01T05:43:38.832Z,67.60
2023-05-01T05:44:38.886Z,67.64
2023-05-01T05:45:39.003Z,67.59
2023-05-01T05:46:39.113Z,67.55
2023-05-01T05:47:39.132Z,67.46
2023-05-01T05:48:39.090Z,67.61
2023-05-01T05:49:39.141Z,67.83
2023-05-01T05:50:39.192Z,67.85
2023-05-01T05:51:39.264Z,67.86
2023-05-01T05:52:39.296Z,67.73
2023-05-01T05:53:39.357Z,67.66
2023-05-01T05:54:39.419Z,67.68
2023-05-01T05:55:39.464Z,67.64
2023-05-01T05:56:39.516Z,67.62
2023-05-01T05:57:39.545Z,67.57
2023-05-01T05:58:39.600Z,67.56
2023-05-01T05:59:39.634Z,67.45
2023-05-01T06:00:39.681Z,67.39
2023-05-01T06:01:39.721Z,67.28
2023-05-01T06:02:40.040Z,67.16
2023-05-01T06:03:40.096Z,67.15
2023-05-01T06:04:39.850Z,66.99
2023-05-01T06:05:39.899Z,66.88
2023-05-01T06:06:39.886Z,66.93
2023-05-01T06:07:39.846Z,66.79
2023-05-01T06:08:39.861Z,66.69
2023-05-01T06:09:39.879Z,66.49
2023-05-01T06:10:39.908Z,66.57
2023-05-01T06:11:39.955Z,66.71
2023-05-01T06:12:42.086Z,66.50
2023-05-01T06:13:39.952Z,66.33
2023-05-01T06:14:39.898Z,66.20
2023-05-01T06:15:39.914Z,66.19
2023-05-01T06:16:39.949Z,66.33
2023-05-01T06:17:39.893Z,66.15
2023-05-01T06:18:39.847Z,65.83
2023-05-01T06:19:39.801Z,65.68
2023-05-01T06:20:39.784Z,65.62
2023-05-01T06:21:39.765Z,65.40
2023-05-01T06:22:39.736Z,65.23
2023-05-01T06:23:39.700Z,65.20
2023-05-01T06:24:39.699Z,64.93
2023-05-01T06:25:39.695Z,64.91
2023-05-01T06:26:39.629Z,64.86
2023-05-01T06:27:39.604Z,64.36
2023-05-01T06:28:39.573Z,64.23
2023-05-01T06:29:39.561Z,64.27
2023-05-01T06:30:39.536Z,64.13
2023-05-01T06:31:39.571Z,64.07
2023-05-01T06:32:39.554Z,64.13
2023-05-01T06:33:39.482Z,63.73
2023-05-01T06:34:39.485Z,63.64
2023-05-01T06:35:39.421Z,63.55
2023-05-01T06:36:39.404Z,63.54
2023-05-01T06:37:39.459Z,63.60
2023-05-01T06:38:39.344Z,63.45
2023-05-01T06:39:39.313Z,63.34
2023-05-01T06:40:39.290Z,63.12
2023-05-01T06:41:39.257Z,63.07
2023-05-01T06:42:39.237Z,62.93
2023-05-01T06:43:39.213Z,62.99
2023-05-01T06:44:39.189Z,62.93
2023-05-01T06:45:39.147Z,62.78
2023-05-01T06:46:39.241Z,62.37
2023-05-01T06:47:39.097Z,62.25
2023-05-01T06:48:39.060Z,62.24
2023-05-01T06:49:39.039Z,62.25
2023-05-01T06:50:39.049Z,62.28
2023-05-01T06:51:38.962Z,62.32
2023-05-01T06:52:38.934Z,62.28
2023-05-01T06:53:38.902Z,62.22
2023-05-01T06:54:38.885Z,61.97
2023-05-01T06:55:38.814Z,61.95
2023-05-01T06:56:38.779Z,61.88
2023-05-01T06:57:38.737Z,61.86
2023-05-01T06:58:38.698Z,61.86
2023-05-01T06:59:38.656Z,61.60
2023-05-01T07:00:38.739Z,61.32
2023-05-01T07:01:38.657Z,60.95
2023-05-01T07:02:38.793Z,60.77
2023-05-01T07:03:38.722Z,60.36
2023-05-01T07:04:38.669Z,60.15
2023-05-01T07:05:38.704Z,60.01
2023-05-01T07:06:38.741Z,59.95
2023-05-01T07:07:42.252Z,59.80
2023-05-01T07:08:38.665Z,59.59
2023-05-01T07:09:38.612Z,59.54
2023-05-01T07:10:40.532Z,59.71
2023-05-01T07:11:38.551Z,59.81
2023-05-01T07:12:38.564Z,59.94
2023-05-01T07:13:38.459Z,59.74
2023-05-01T07:14:38.414Z,59.71
2023-05-01T07:15:38.364Z,59.65
2023-05-01T07:16:38.376Z,59.70
2023-05-01T07:17:38.344Z,59.69
2023-05-01T07:18:38.272Z,59.59
2023-05-01T07:19:38.227Z,59.61
2023-05-01T07:20:38.201Z,59.70
2023-05-01T07:21:38.143Z,59.51
2023-05-01T07:22:38.137Z,59.64
2023-05-01T07:23:38.090Z,59.56
2023-05-01T07:24:38.047Z,59.37
2023-05-01T07:25:38.004Z,59.37
2023-05-01T07:26:37.971Z,58.86
2023-05-01T07:27:37.933Z,59.24
2023-05-01T07:28:37.877Z,59.39
2023-05-01T07:29:37.837Z,59.47
2023-05-01T07:30:37.802Z,59.46
2023-05-01T07:31:37.899Z,59.15
2023-05-01T07:32:37.794Z,59.05
2023-05-01T07:33:37.654Z,59.00
2023-05-01T07:34:37.666Z,58.95
2023-05-01T07:35:37.670Z,59.07
2023-05-01T07:36:37.684Z,58.71
2023-05-01T07:37:37.679Z,58.69
2023-05-01T07:38:38.490Z,58.19
2023-05-01T07:39:37.700Z,58.09
2023-05-01T07:40:37.698Z,57.88
2023-05-01T07:41:37.708Z,58.00
2023-05-01T07:42:37.748Z,58.09
2023-05-01T07:43:37.720Z,58.03
2023-05-01T07:44:37.744Z,57.90
2023-05-01T07:45:37.802Z,57.55
2023-05-01T07:46:38.024Z,57.19
2023-05-01T07:47:37.893Z,57.23
2023-05-01T07:48:39.013Z,56.61
2023-05-01T07:49:37.722Z,56.36
2023-05-01T07:50:37.696Z,56.38
2023-05-01T07:51:37.707Z,56.05
2023-05-01T07:52:37.696Z,55.91
2023-05-01T07:53:37.669Z,55.48
2023-05-01T07:54:37.676Z,55.42
2023-05-01T07:55:37.635Z,55.00
2023-05-01T07:56:37.565Z,54.77
2023-05-01T07:57:37.514Z,54.50
2023-05-01T07:58:37.443Z,54.55
2023-05-01T07:59:37.372Z,54.51
2023-05-01T08:00:37.306Z,54.12
2023-05-01T08:01:37.282Z,53.66
2023-05-01T08:02:37.354Z,53.21
2023-05-01T08:03:37.352Z,53.45
2023-05-01T08:04:37.281Z,52.98
2023-05-01T08:05:37.082Z,53.03
2023-05-01T08:06:37.133Z,53.33
2023-05-01T08:07:36.998Z,53.24
2023-05-01T08:08:36.962Z,53.01
2023-05-01T08:09:36.902Z,53.17
2023-05-01T08:10:36.898Z,52.75
2023-05-01T08:11:36.816Z,52.53
2023-05-01T08:12:36.806Z,52.55
2023-05-01T08:13:36.723Z,52.28
2023-05-01T08:14:36.672Z,52.03
2023-05-01T08:15:36.675Z,51.78
2023-05-01T08:16:36.660Z,51.51
2023-05-01T08:17:36.662Z,51.27
2023-05-01T08:18:36.590Z,51.40
2023-05-01T08:19:36.567Z,51.43
2023-05-01T08:20:36.541Z,51.05
2023-05-01T08:21:36.498Z,50.93
2023-05-01T08:22:36.440Z,51.25
2023-05-01T08:23:36.393Z,50.76
2023-05-01T08:24:36.348Z,50.90
2023-05-01T08:25:36.330Z,51.11
2023-05-01T08:26:36.294Z,50.85
2023-05-01T08:27:36.229Z,50.31
2023-05-01T08:28:36.166Z,50.49
2023-05-01T08:29:36.139Z,50.29
2023-05-01T08:30:36.138Z,50.24
2023-05-01T08:31:36.240Z,50.30
2023-05-01T08:32:36.128Z,50.08
2023-05-01T08:33:36.032Z,50.13
2023-05-01T08:34:35.974Z,49.78
2023-05-01T08:35:35.890Z,49.35
2023-05-01T08:36:35.822Z,48.98
2023-05-01T08:37:35.746Z,48.49
2023-05-01T08:38:35.685Z,48.91
2023-05-01T08:39:35.613Z,48.89
2023-05-01T08:40:35.544Z,48.62
2023-05-01T08:41:35.497Z,48.38
2023-05-01T08:42:35.470Z,47.50
2023-05-01T08:43:35.423Z,47.45
2023-05-01T08:44:35.391Z,47.52
2023-05-01T08:45:35.353Z,47.74
2023-05-01T08:46:35.401Z,47.47
2023-05-01T08:47:35.300Z,47.02
2023-05-01T08:48:35.227Z,47.02
2023-05-01T08:49:35.182Z,46.73
2023-05-01T08:50:35.155Z,46.44
2023-05-01T08:51:35.090Z,46.21
2023-05-01T08:52:35.061Z,45.74
2023-05-01T08:53:34.948Z,45.75
2023-05-01T08:54:34.843Z,45.97
2023-05-01T08:55:34.734Z,46.56
2023-05-01T08:56:34.654Z,46.82
2023-05-01T08:57:34.596Z,46.92
2023-05-01T08:58:34.556Z,47.14
2023-05-01T08:59:34.481Z,47.17
2023-05-01T09:00:34.413Z,46.82
2023-05-01T09:01:34.418Z,46.08
2023-05-01T09:02:34.354Z,45.98
2023-05-01T09:03:34.203Z,45.11
2023-05-01T09:04:34.055Z,44.83
2023-05-01T09:05:33.952Z,44.33
2023-05-01T09:06:34.005Z,44.13
2023-05-01T09:07:33.806Z,43.91
2023-05-01T09:08:33.665Z,43.98
2023-05-01T09:09:33.560Z,44.68
2023-05-01T09:10:33.480Z,44.57
2023-05-01T09:11:33.358Z,44.56
2023-05-01T09:12:33.354Z,45.08
2023-05-01T09:13:33.276Z,44.09
2023-05-01T09:14:33.216Z,43.87
2023-05-01T09:15:33.149Z,43.58
2023-05-01T09:16:33.133Z,43.30
2023-05-01T09:17:33.104Z,43.30
2023-05-01T09:18:32.957Z,43.16
2023-05-01T09:19:32.901Z,42.88
2023-05-01T09:20:32.835Z,42.53
2023-05-01T09:21:32.731Z,42.55
2023-05-01T09:22:32.686Z,42.52
2023-05-01T09:23:32.571Z,42.70
2023-05-01T09:24:32.480Z,43.20
2023-05-01T09:25:32.431Z,43.21
2023-05-01T09:26:32.369Z,42.93
2023-05-01T09:27:32.309Z,42.69
2023-05-01T09:28:32.234Z,41.90
2023-05-01T09:29:32.152Z,41.83
2023-05-01T09:30:32.082Z,41.61
2023-05-01T09:31:31.951Z,41.62
2023-05-01T09:32:31.865Z,41.52
2023-05-01T09:33:31.737Z,41.17
2023-05-01T09:34:31.594Z,41.08
2023-05-01T09:35:31.507Z,41.15
2023-05-01T09:36:31.438Z,41.04
2023-05-01T09:37:31.353Z,40.37
2023-05-01T09:38:31.240Z,40.09
2023-05-01T09:39:31.136Z,40.22
2023-05-01T09:40:31.059Z,40.02
2023-05-01T09:41:30.928Z,40.02
2023-05-01T09:42:30.817Z,40.05
2023-05-01T09:43:30.700Z,40.03
2023-05-01T09:44:30.592Z,40.96
2023-05-01T09:45:30.493Z,40.51
2023-05-01T09:46:30.510Z,40.46
2023-05-01T09:47:30.433Z,40.60
2023-05-01T09:48:32.001Z,40.36
2023-05-01T09:49:30.170Z,40.74
2023-05-01T09:50:30.054Z,40.44
2023-05-01T09:51:29.955Z,40.71
2023-05-01T09:52:29.852Z,40.88
2023-05-01T09:53:29.740Z,40.31
2023-05-01T09:54:29.566Z,39.90
2023-05-01T09:55:29.473Z,40.04
2023-05-01T09:56:29.312Z,39.79
2023-05-01T09:57:29.194Z,40.14
2023-05-01T09:58:29.072Z,40.08
2023-05-01T09:59:28.931Z,40.53
2023-05-01T10:00:28.802Z,40.76
2023-05-01T10:01:28.695Z,39.96
2023-05-01T10:02:28.690Z,39.56
2023-05-01T10:03:28.544Z,39.36
2023-05-01T10:04:28.276Z,39.31
2023-05-01T10:05:28.138Z,39.20
2023-05-01T10:06:28.080Z,38.96
2023-05-01T10:07:27.869Z,38.75
2023-05-01T10:08:27.752Z,38.69
2023-05-01T10:09:27.601Z,39.41
2023-05-01T10:10:27.470Z,39.24
2023-05-01T10:11:27.387Z,39.48
2023-05-01T10:12:27.193Z,39.34
2023-05-01T10:13:27.059Z,39.21
2023-05-01T10:14:27.239Z,39.89
2023-05-01T10:15:27.191Z,39.76
2023-05-01T10:16:26.680Z,40.21
2023-05-01T10:17:26.598Z,40.15
2023-05-01T10:18:26.459Z,40.90
2023-05-01T10:19:26.345Z,41.27
2023-05-01T10:20:26.238Z,41.26
2023-05-01T10:21:26.141Z,41.49
2023-05-01T10:22:26.055Z,41.71
2023-05-01T10:23:25.947Z,41.91
2023-05-01T10:24:25.855Z,42.55
2023-05-01T10:25:25.739Z,42.69
2023-05-01T10:26:25.638Z,44.69
2023-05-01T10:27:25.645Z,46.22
2023-05-01T10:28:25.570Z,46.98
2023-05-01T10:29:25.518Z,47.41
2023-05-01T10:30:25.491Z,48.43
2023-05-01T10:31:25.596Z,49.59
2023-05-01T10:32:25.534Z,50.08
2023-05-01T10:33:25.453Z,49.93
2023-05-01T10:34:27.063Z,49.82
2023-05-01T10:35:25.371Z,49.50
2023-05-01T10:36:25.323Z,49.83
2023-05-01T10:37:25.220Z,50.87
2023-05-01T10:38:25.160Z,51.26
2023-05-01T10:39:25.100Z,50.92
2023-05-01T10:40:25.049Z,51.50
2023-05-01T10:41:25.003Z,50.77
2023-05-01T10:42:24.994Z,51.87
2023-05-01T10:43:24.921Z,52.20
2023-05-01T10:44:25.308Z,53.46
2023-05-01T10:45:24.843Z,53.89
2023-05-01T10:46:24.881Z,54.01
2023-05-01T10:47:24.953Z,54.51
2023-05-01T10:48:24.705Z,53.54
2023-05-01T10:49:24.654Z,54.46
2023-05-01T10:50:24.618Z,54.36
2023-05-01T10:51:27.256Z,54.57
2023-05-01T10:52:24.485Z,54.64
2023-05-01T10:53:24.432Z,55.12
2023-05-01T10:54:24.376Z,54.88
2023-05-01T10:55:24.344Z,54.71
2023-05-01T10:56:24.254Z,54.16
2023-05-01T10:57:24.199Z,54.87
2023-05-01T10:58:24.140Z,55.57
2023-05-01T10:59:24.094Z,54.79
2023-05-01T11:00:24.029Z,54.20
2023-05-01T11:01:23.993Z,54.73
2023-05-01T11:02:24.015Z,54.50
2023-05-01T11:03:23.853Z,54.11
2023-05-01T11:04:23.804Z,53.71
2023-05-01T11:05:35.763Z,53.62
2023-05-01T11:06:23.785Z,53.82
2023-05-01T11:07:23.624Z,54.27
2023-05-01T11:08:23.528Z,54.52
2023-05-01T11:09:23.452Z,54.10
2023-05-01T11:10:23.391Z,54.12
2023-05-01T11:11:23.339Z,53.75
2023-05-01T11:12:23.333Z,54.16
2023-05-01T11:13:23.232Z,54.01
2023-05-01T11:14:23.161Z,53.85
2023-05-01T11:15:23.106Z,53.46
2023-05-01T11:16:23.077Z,53.70
2023-05-01T11:17:23.010Z,53.96
2023-05-01T11:18:22.950Z,53.96
2023-05-01T11:19:22.877Z,54.20
2023-05-01T11:20:22.805Z,53.88
2023-05-01T11:21:22.742Z,53.67
2023-05-01T11:22:22.786Z,53.70
2023-05-01T11:23:22.621Z,53.41
2023-05-01T11:24:22.535Z,53.43
2023-05-01T11:25:22.480Z,53.27
2023-05-01T11:26:22.395Z,52.68
2023-05-01T11:27:22.322Z,53.12
2023-05-01T11:28:22.250Z,53.24
2023-05-01T11:29:22.162Z,53.48
2023-05-01T11:30:22.088Z,53.41
2023-05-01T11:31:22.036Z,52.33
2023-05-01T11:32:22.043Z,51.08
2023-05-01T11:33:21.907Z,51.10
2023-05-01T11:34:21.757Z,51.03
2023-05-01T11:35:21.709Z,51.17
2023-05-01T11:36:21.581Z,50.73
2023-05-01T11:37:21.486Z,51.07
2023-05-01T11:38:21.446Z,50.68
2023-05-01T11:39:21.303Z,50.64
2023-05-01T11:40:21.260Z,51.11
2023-05-01T11:41:21.150Z,51.61
2023-05-01T11:42:21.198Z,51.66
2023-05-01T11:43:21.012Z,51.06
2023-05-01T11:44:20.940Z,51.38
2023-05-01T11:45:20.907Z,50.85
2023-05-01T11:46:20.895Z,52.48
2023-05-01T11:47:20.892Z,52.31
2023-05-01T11:48:20.823Z,52.45
2023-05-01T11:49:20.793Z,52.51
2023-05-01T11:50:20.791Z,52.91
2023-05-01T11:51:20.803Z,53.31
2023-05-01T11:52:20.806Z,53.13
2023-05-01T11:53:20.829Z,53.10
2023-05-01T11:54:20.943Z,53.94
2023-05-01T11:55:20.789Z,55.13
2023-05-01T11:56:26.776Z,53.96
2023-05-01T11:57:20.693Z,53.40
2023-05-01T11:58:20.653Z,52.94
2023-05-01T11:59:20.564Z,53.05
2023-05-01T12:00:20.507Z,52.86
2023-05-01T12:01:20.447Z,52.74
2023-05-01T12:02:20.413Z,52.99
2023-05-01T12:03:20.563Z,52.96
2023-05-01T12:04:20.295Z,53.11
2023-05-01T12:05:20.155Z,53.59
2023-05-01T12:06:20.125Z,53.38
2023-05-01T12:07:20.050Z,53.09
2023-05-01T12:08:19.957Z,53.57
2023-05-01T12:09:19.893Z,53.98
2023-05-01T12:10:19.867Z,53.67
2023-05-01T12:11:19.784Z,53.81
2023-05-01T12:12:19.723Z,54.99
2023-05-01T12:13:19.678Z,54.09
2023-05-01T12:14:19.613Z,54.52
2023-05-01T12:15:19.552Z,54.23
2023-05-01T12:16:19.527Z,54.26
2023-05-01T12:17:19.481Z,54.10
2023-05-01T12:18:19.406Z,55.39
2023-05-01T12:19:21.037Z,55.74
2023-05-01T12:20:19.265Z,56.33
2023-05-01T12:21:19.126Z,57.74
2023-05-01T12:22:19.068Z,57.40
2023-05-01T12:23:19.011Z,60.30
2023-05-01T12:24:18.943Z,61.87
2023-05-01T12:25:18.864Z,62.74
2023-05-01T12:26:18.939Z,61.33
2023-05-01T12:27:18.745Z,61.45
2023-05-01T12:28:18.686Z,61.14
2023-05-01T12:29:18.618Z,61.75
2023-05-01T12:30:18.557Z,63.07
2023-05-01T12:31:18.502Z,62.19
2023-05-01T12:32:18.428Z,63.32
2023-05-01T12:33:18.654Z,64.07
2023-05-01T12:34:18.304Z,63.88
2023-05-01T12:35:18.195Z,64.61
2023-05-01T12:36:18.111Z,64.81
2023-05-01T12:37:18.045Z,65.35
2023-05-01T12:38:17.971Z,65.50
2023-05-01T12:39:17.862Z,65.80
2023-05-01T12:40:17.787Z,65.47
2023-05-01T12:41:17.701Z,65.28
2023-05-01T12:42:17.643Z,63.05
2023-05-01T12:43:17.531Z,62.92
2023-05-01T12:44:17.455Z,61.14
2023-05-01T12:45:17.390Z,60.40
2023-05-01T12:46:17.338Z,60.89
2023-05-01T12:47:17.254Z,60.88
2023-05-01T12:48:17.316Z,60.85
2023-05-01T12:49:17.114Z,60.74
2023-05-01T12:50:17.051Z,61.15
2023-05-01T12:51:16.993Z,61.14
2023-05-01T12:52:16.920Z,61.36